Time;durP1;ratioP1;P1;durP2;ratioP2;P2;SDS_P1;SDS_P2;PMS_P1;PMS_P2;Temp;Humidity;BMP_temperature;BMP_pressure;BME280_temperature;BME280_humidity;BME280_pressure;Samples;Min_cycle;Max_cycle;Signal;HPM_P1;HPM_P2
2022/12/25 09:00:06;;;;;;;6.90;3.90;;;;;;;9.99;100.00;99886.72;6240356;22;20212;-81
2022/12/25 09:02:32;;;;;;;5.87;3.97;;;;;;;10.06;100.00;99871.47;6201018;23;20210;-82
2022/12/25 09:04:59;;;;;;;5.37;3.47;;;;;;;10.08;100.00;99878.25;6203315;23;20207;-81
2022/12/25 09:07:26;;;;;;;5.97;4.37;;;;;;;10.13;100.00;99882.97;6195064;23;20209;-81
2022/12/25 09:09:53;;;;;;;6.17;4.40;;;;;;;10.24;100.00;99885.03;6258231;22;20562;-82
2022/12/25 09:12:19;;;;;;;9.17;5.87;;;;;;;10.45;100.00;99870.56;6230596;22;20287;-83
2022/12/25 09:14:46;;;;;;;14.13;10.47;;;;;;;10.52;100.00;99866.81;6257799;22;20211;-82
2022/12/25 09:17:13;;;;;;;16.37;12.03;;;;;;;10.55;100.00;99876.25;6259371;22;20268;-82
2022/12/25 09:19:39;;;;;;;15.97;10.70;;;;;;;10.58;100.00;99867.81;6255728;22;20288;-82
2022/12/25 09:22:06;;;;;;;12.97;8.97;;;;;;;10.70;100.00;99870.63;6226232;22;20260;-82
2022/12/25 09:24:32;;;;;;;10.90;6.20;;;;;;;10.81;100.00;99875.31;6250521;22;20261;-82
2022/12/25 09:26:59;;;;;;;7.23;4.90;;;;;;;10.95;100.00;99887.59;6248333;22;20243;-83
2022/12/25 09:29:26;;;;;;;6.83;4.83;;;;;;;11.03;100.00;99881.97;6221018;23;20209;-82
2022/12/25 09:31:53;;;;;;;6.00;4.30;;;;;;;11.10;100.00;99884.63;6246114;22;20233;-83
2022/12/25 09:34:19;;;;;;;7.00;4.57;;;;;;;11.14;100.00;99883.97;6245626;22;20283;-83
2022/12/25 09:36:46;;;;;;;6.53;4.13;;;;;;;11.15;100.00;99888.28;6245785;22;20299;-83
2022/12/25 09:39:13;;;;;;;5.87;3.63;;;;;;;11.13;100.00;99885.00;6220045;23;20280;-84
2022/12/25 09:41:52;;;;;;;5.50;3.13;;;;;;;11.13;100.00;99885.00;6245595;22;20210;-84
2022/12/25 09:44:23;;;;;;;4.70;3.33;;;;;;;11.25;100.00;99887.78;6244862;22;20205;-82
2022/12/25 09:46:53;;;;;;;4.77;3.23;;;;;;;11.32;100.00;99884.03;6218770;23;20661;-84
2022/12/25 09:49:41;;;;;;;6.27;3.53;;;;;;;11.36;100.00;99887.09;6245447;22;20209;-83
2022/12/25 09:52:12;;;;;;;5.40;3.60;;;;;;;11.48;100.00;99888.03;6218282;22;20212;-80
2022/12/25 09:54:48;;;;;;;6.57;4.43;;;;;;;11.52;100.00;99888.44;6244838;23;20220;-79
2022/12/25 09:57:15;;;;;;;7.07;3.87;;;;;;;11.73;100.00;99877.31;6243467;22;20226;-80
2022/12/25 09:59:43;;;;;;;5.07;3.33;;;;;;;11.79;100.00;99874.59;6244232;22;20232;-80
2022/12/25 10:02:35;;;;;;;5.87;3.83;;;;;;;11.93;100.00;99877.13;6243251;22;20597;-80
2022/12/25 10:05:24;;;;;;;5.70;3.40;;;;;;;12.04;100.00;99873.72;6244446;22;20206;-79
2022/12/25 10:08:00;;;;;;;7.03;3.40;;;;;;;12.05;100.00;99857.38;6244201;22;20232;-80
2022/12/25 10:10:55;;;;;;;4.47;2.93;;;;;;;12.00;100.00;99859.88;6242647;22;20511;-79
2022/12/25 10:13:51;;;;;;;4.87;3.00;;;;;;;11.80;100.00;99864.66;6217393;23;20257;-79
2022/12/25 10:16:30;;;;;;;5.03;2.80;;;;;;;11.73;100.00;99856.66;6216667;22;20214;-81
2022/12/25 10:19:09;;;;;;;5.40;3.23;;;;;;;11.80;100.00;99860.09;6217724;23;20213;-80
2022/12/25 10:21:36;;;;;;;36.10;29.77;;;;;;;11.79;100.00;99852.28;6217648;23;20276;-80
2022/12/25 10:24:24;;;;;;;7.57;4.80;;;;;;;11.84;100.00;99855.94;6243668;22;20289;-79
2022/12/25 10:26:52;;;;;;;4.00;3.37;;;;;;;11.80;100.00;99854.72;6193291;23;20235;-80
2022/12/25 10:29:19;;;;;;;6.10;3.40;;;;;;;11.81;100.00;99853.69;6217415;23;20197;-79
2022/12/25 10:31:48;;;;;;;5.27;3.83;;;;;;;11.66;100.00;99845.16;6243814;22;20212;-79
2022/12/25 10:34:15;;;;;;;6.67;3.80;;;;;;;11.69;100.00;99836.66;6216794;22;21017;-88
2022/12/25 10:36:43;;;;;;;6.43;4.07;;;;;;;11.67;100.00;99836.03;6217404;23;20205;-80
2022/12/25 10:39:16;;;;;;;6.13;3.80;;;;;;;11.62;100.00;99832.41;6244117;22;20255;-80
2022/12/25 10:42:16;;;;;;;5.87;3.60;;;;;;;11.63;100.00;99834.03;6243894;22;20283;-80
2022/12/25 10:45:01;;;;;;;4.87;3.40;;;;;;;11.53;100.00;99831.84;6244025;22;20217;-81
2022/12/25 10:47:32;;;;;;;4.87;3.20;;;;;;;11.55;100.00;99831.63;6244192;22;20260;-87
2022/12/25 10:50:00;;;;;;;6.10;2.60;;;;;;;11.61;100.00;99830.75;6218540;22;20209;-88
2022/12/25 10:52:28;;;;;;;3.73;2.57;;;;;;;11.71;100.00;99828.38;6244346;22;20550;-89
2022/12/25 10:54:55;;;;;;;3.37;2.37;;;;;;;11.74;100.00;99836.03;6219137;23;20212;-91
2022/12/25 10:57:23;;;;;;;6.20;2.53;;;;;;;11.79;100.00;99826.25;6193637;23;20213;-89
2022/12/25 10:59:55;;;;;;;2.97;1.97;;;;;;;11.89;100.00;99817.69;6177165;23;20205;-88
2022/12/25 11:02:27;;;;;;;2.40;1.93;;;;;;;11.81;100.00;99820.66;6162796;23;20217;-88
2022/12/25 11:05:08;;;;;;;1.90;1.67;;;;;;;11.91;100.00;99805.66;6163972;23;20235;-90
2022/12/25 11:07:45;;;;;;;4.40;2.03;;;;;;;12.04;100.00;99807.38;6164133;23;20220;-87
2022/12/25 11:10:30;;;;;;;4.83;2.50;;;;;;;11.91;100.00;99797.63;6165161;23;20209;-88
2022/12/25 11:12:58;;;;;;;4.80;2.80;;;;;;;11.88;100.00;99794.56;6163648;23;20217;-87
2022/12/25 11:15:43;;;;;;;4.33;2.87;;;;;;;12.04;100.00;99804.69;6188404;23;20205;-89
2022/12/25 11:18:21;;;;;;;2.97;1.80;;;;;;;12.20;100.00;99801.41;6187758;23;20215;-88
2022/12/25 11:20:53;;;;;;;3.00;2.00;;;;;;;12.25;100.00;99795.34;6163004;23;20198;-88
2022/12/25 11:23:22;;;;;;;4.10;3.40;;;;;;;12.28;100.00;99790.34;6188393;23;20228;-88
2022/12/25 11:26:02;;;;;;;2.77;2.20;;;;;;;12.37;100.00;99788.16;6163537;23;20212;-87
2022/12/25 11:28:30;;;;;;;3.80;3.10;;;;;;;12.41;100.00;99791.22;6138369;23;20208;-92
2022/12/25 11:31:00;;;;;;;3.33;2.10;;;;;;;12.45;100.00;99781.66;6187957;23;20282;-87
2022/12/25 11:33:33;;;;;;;3.20;2.33;;;;;;;12.47;100.00;99775.00;6163365;23;20236;-89
2022/12/25 11:36:05;;;;;;;7.63;4.40;;;;;;;12.45;100.00;99765.53;6214377;23;20211;-89
2022/12/25 11:38:31;;;;;;;8.30;4.33;;;;;;;12.50;100.00;99771.88;6187584;23;20222;-86
2022/12/25 11:41:00;;;;;;;4.03;2.53;;;;;;;12.58;100.00;99768.03;6187610;23;20211;-89
2022/12/25 11:43:55;;;;;;;6.33;3.40;;;;;;;12.60;100.00;99753.31;6163937;23;20207;-88
2022/12/25 11:46:26;;;;;;;5.60;3.57;;;;;;;12.60;100.00;99749.78;6187735;23;20210;-87
2022/12/25 11:48:59;;;;;;;3.80;2.77;;;;;;;12.63;100.00;99758.25;6163165;23;20249;-88
2022/12/25 11:51:32;;;;;;;3.80;2.57;;;;;;;12.63;100.00;99741.28;6138829;23;20242;-88
2022/12/25 11:54:03;;;;;;;2.50;2.27;;;;;;;12.76;100.00;99730.31;6187930;23;20210;-89
2022/12/25 11:56:30;;;;;;;4.50;2.57;;;;;;;12.74;100.00;99732.41;6187472;23;20238;-89
2022/12/25 11:59:30;;;;;;;44.70;25.13;;;;;;;12.74;100.00;99727.03;6163007;23;20209;-88
2022/12/25 12:02:17;;;;;;;15.67;10.10;;;;;;;12.77;100.00;99735.47;6214236;23;20215;-88
2022/12/25 12:04:47;;;;;;;34.33;21.10;;;;;;;12.83;100.00;99743.69;6187735;23;20550;-86
2022/12/25 12:07:26;;;;;;;120.67;77.87;;;;;;;12.95;100.00;99749.88;6163073;23;20223;-88
2022/12/25 12:10:06;;;;;;;143.87;91.07;;;;;;;12.94;100.00;99745.53;6188090;23;20902;-89
2022/12/25 12:12:53;;;;;;;72.53;53.17;;;;;;;12.89;100.00;99748.09;6162230;23;20273;-87
2022/12/25 12:15:40;;;;;;;22.73;17.83;;;;;;;12.86;100.00;99741.34;6187839;23;20215;-89
2022/12/25 12:18:15;;;;;;;73.43;42.17;;;;;;;12.82;100.00;99745.53;6162739;23;20660;-89
2022/12/25 12:20:42;;;;;;;53.73;37.23;;;;;;;12.71;100.00;99739.09;6163299;23;20215;-88
2022/12/25 12:23:15;;;;;;;4.93;3.83;;;;;;;12.70;100.00;99725.88;6163336;23;20215;-88
2022/12/25 12:25:43;;;;;;;3.97;3.30;;;;;;;12.64;100.00;99732.19;6187806;23;20211;-88
2022/12/25 12:28:20;;;;;;;4.20;3.43;;;;;;;12.66;100.00;99733.59;6187301;23;20203;-88
2022/12/25 12:31:02;;;;;;;3.80;3.40;;;;;;;12.51;100.00;99719.75;6162849;23;20214;-88
2022/12/25 12:33:41;;;;;;;4.17;3.67;;;;;;;12.44;100.00;99721.72;6189195;23;20282;-88
2022/12/25 12:36:11;;;;;;;4.70;3.83;;;;;;;12.41;100.00;99732.13;6189468;23;20209;-88
2022/12/25 12:38:39;;;;;;;4.33;3.93;;;;;;;12.34;100.00;99726.81;6165028;23;20206;-87
2022/12/25 12:41:08;;;;;;;5.03;4.53;;;;;;;12.25;100.00;99731.72;6141309;23;20231;-86
2022/12/25 12:43:44;;;;;;;5.03;4.37;;;;;;;12.18;100.00;99733.66;6189947;23;20207;-87
2022/12/25 12:46:35;;;;;;;6.30;5.43;;;;;;;12.20;100.00;99734.25;6189504;23;20666;-86
2022/12/25 12:49:31;;;;;;;6.57;5.93;;;;;;;12.09;100.00;99742.25;6165591;23;20265;-86
2022/12/25 12:52:05;;;;;;;7.80;7.10;;;;;;;12.07;100.00;99738.97;6151606;23;20213;-86
2022/12/25 12:55:16;;;;;;;6.07;5.53;;;;;;;12.05;100.00;99738.38;6165611;23;20217;-86
2022/12/25 12:57:43;;;;;;;12.73;11.53;;;;;;;12.03;100.00;99733.25;6192544;23;20210;-85
2022/12/25 13:00:16;;;;;;;20.40;18.50;;;;;;;11.97;100.00;99734.16;6189951;23;20240;-85
2022/12/25 13:03:34;;;;;;;11.67;10.57;;;;;;;11.90;100.00;99720.78;6190054;23;20217;-86
2022/12/25 13:06:19;;;;;;;8.70;7.23;;;;;;;11.80;100.00;99723.19;6190440;23;20284;-85
2022/12/25 13:09:09;;;;;;;8.97;7.60;;;;;;;11.86;100.00;99727.66;6189545;23;20209;-86
2022/12/25 13:11:39;;;;;;;7.57;6.87;;;;;;;11.88;100.00;99714.84;6198945;23;20204;-85
2022/12/25 13:14:15;;;;;;;7.53;6.83;;;;;;;11.67;100.00;99712.59;6167411;23;20261;-85
2022/12/25 13:16:44;;;;;;;7.60;6.80;;;;;;;11.59;100.00;99707.53;6189781;23;20216;-85
2022/12/25 13:19:21;;;;;;;8.07;6.60;;;;;;;11.57;100.00;99706.91;6189997;23;20209;-87
2022/12/25 13:21:57;;;;;;;7.57;6.80;;;;;;;11.56;100.00;99704.47;6165151;23;20216;-86
2022/12/25 13:24:29;;;;;;;7.53;6.70;;;;;;;11.49;100.00;99700.00;6189285;23;20235;-86
2022/12/25 13:26:56;;;;;;;7.40;6.70;;;;;;;11.42;100.00;99685.84;6189688;23;20213;-86
2022/12/25 13:29:27;;;;;;;7.70;7.00;;;;;;;11.40;100.00;99674.50;6164564;23;20210;-85
2022/12/25 13:31:55;;;;;;;8.47;7.23;;;;;;;11.29;100.00;99672.56;6189714;23;20217;-85
2022/12/25 13:34:40;;;;;;;8.53;7.63;;;;;;;11.28;100.00;99678.16;6167712;23;20281;-83
2022/12/25 13:37:20;;;;;;;9.00;7.30;;;;;;;11.30;100.00;99678.75;6198089;23;20211;-84
2022/12/25 13:40:00;;;;;;;8.83;7.60;;;;;;;11.20;100.00;99665.84;6136291;23;20209;-83
2022/12/25 13:42:31;;;;;;;7.73;7.00;;;;;;;11.21;100.00;99677.41;6136249;23;20272;-83
2022/12/25 13:45:00;;;;;;;8.47;7.60;;;;;;;11.12;100.00;99668.84;6209144;23;20197;-84
2022/12/25 13:47:48;;;;;;;9.20;8.30;;;;;;;10.95;100.00;99667.78;6191907;23;20215;-83
2022/12/25 13:50:33;;;;;;;10.30;9.30;;;;;;;10.86;100.00;99686.00;6186617;23;20212;-83
2022/12/25 13:53:15;;;;;;;14.30;13.00;;;;;;;10.87;100.00;99686.84;6212811;23;20212;-84
2022/12/25 19:24:42;;;;;;;15.37;13.77;;;;;;;3.37;100.00;99464.22;6208446;22;20280;-79
